sensor_id;sensor_type;location;lat;lon;timestamp;temperature;humidity
41262;DHT22;29629;52.532;13.352;2023-03-04T00:01:19;3.10;99.90
41262;DHT22;29629;52.532;13.352;2023-03-04T00:03:46;3.20;99.90
41262;DHT22;29629;52.532;13.352;2023-03-04T00:06:13;3.10;99.90
41262;DHT22;29629;52.532;13.352;2023-03-04T00:08:39;3.00;99.90
41262;DHT22;29629;52.532;13.352;2023-03-04T00:11:07;3.00;99.90
41262;DHT22;29629;52.532;13.352;2023-03-04T00:13:34;3.00;99.90
41262;DHT22;29629;52.532;13.352;2023-03-04T00:16:01;3.10;99.90
41262;DHT22;29629;52.532;13.352;2023-03-04T00:18:27;3.10;99.90
41262;DHT22;29629;52.532;13.352;2023-03-04T00:20:54;3.10;99.90
41262;DHT22;29629;52.532;13.352;2023-03-04T00:23:21;3.20;99.90
41262;DHT22;29629;52.532;13.352;2023-03-04T00:25:47;3.20;99.90
41262;DHT22;29629;52.532;13.352;2023-03-04T00:28:15;3.20;99.90
41262;DHT22;29629;52.532;13.352;2023-03-04T00:30:42;3.20;99.90
41262;DHT22;29629;52.532;13.352;2023-03-04T00:33:09;3.20;99.90
41262;DHT22;29629;52.532;13.352;2023-03-04T00:35:35;3.30;99.90
41262;DHT22;29629;52.532;13.352;2023-03-04T00:38:02;3.20;99.90
41262;DHT22;29629;52.532;13.352;2023-03-04T00:40:29;3.30;99.90
41262;DHT22;29629;52.532;13.352;2023-03-04T00:42:55;3.20;99.90
41262;DHT22;29629;52.532;13.352;2023-03-04T00:45:24;3.30;99.90
41262;DHT22;29629;52.532;13.352;2023-03-04T00:47:51;3.40;99.90
41262;DHT22;29629;52.532;13.352;2023-03-04T00:50:17;3.40;99.90
41262;DHT22;29629;52.532;13.352;2023-03-04T00:52:45;3.40;99.90
41262;DHT22;29629;52.532;13.352;2023-03-04T00:55:11;3.40;99.90
41262;DHT22;29629;52.532;13.352;2023-03-04T00:57:38;3.40;99.90
41262;DHT22;29629;52.532;13.352;2023-03-04T01:00:05;3.50;99.90
41262;DHT22;29629;52.532;13.352;2023-03-04T01:02:34;3.50;99.90
41262;DHT22;29629;52.532;13.352;2023-03-04T01:05:01;3.50;99.90
41262;DHT22;29629;52.532;13.352;2023-03-04T01:07:28;3.50;99.90
41262;DHT22;29629;52.532;13.352;2023-03-04T01:09:56;3.60;99.90
41262;DHT22;29629;52.532;13.352;2023-03-04T01:12:23;3.60;99.90
41262;DHT22;29629;52.532;13.352;2023-03-04T01:14:50;3.50;99.90
41262;DHT22;29629;52.532;13.352;2023-03-04T01:17:17;3.60;99.90
41262;DHT22;29629;52.532;13.352;2023-03-04T01:19:45;3.60;99.90
41262;DHT22;29629;52.532;13.352;2023-03-04T01:22:12;3.70;99.90
41262;DHT22;29629;52.532;13.352;2023-03-04T01:24:41;3.70;99.90
41262;DHT22;29629;52.532;13.352;2023-03-04T01:27:07;3.80;99.90
41262;DHT22;29629;52.532;13.352;2023-03-04T01:29:34;3.80;99.90
41262;DHT22;29629;52.532;13.352;2023-03-04T01:32:01;3.80;99.90
41262;DHT22;29629;52.532;13.352;2023-03-04T01:34:27;3.80;99.90
41262;DHT22;29629;52.532;13.352;2023-03-04T01:36:56;3.90;99.90
41262;DHT22;29629;52.532;13.352;2023-03-04T01:39:23;3.80;99.90
41262;DHT22;29629;52.532;13.352;2023-03-04T01:41:49;3.90;99.90
41262;DHT22;29629;52.532;13.352;2023-03-04T01:44:16;3.90;99.90
41262;DHT22;29629;52.532;13.352;2023-03-04T01:46:45;4.00;99.90
41262;DHT22;29629;52.532;13.352;2023-03-04T01:49:13;3.90;99.90
41262;DHT22;29629;52.532;13.352;2023-03-04T01:51:41;4.00;99.90
41262;DHT22;29629;52.532;13.352;2023-03-04T01:54:09;3.90;99.90
41262;DHT22;29629;52.532;13.352;2023-03-04T01:56:37;4.00;99.90
41262;DHT22;29629;52.532;13.352;2023-03-04T01:59:08;4.00;99.90
41262;DHT22;29629;52.532;13.352;2023-03-04T02:01:34;4.00;99.90
41262;DHT22;29629;52.532;13.352;2023-03-04T02:04:02;4.00;99.90
41262;DHT22;29629;52.532;13.352;2023-03-04T02:06:29;4.10;99.90
41262;DHT22;29629;52.532;13.352;2023-03-04T02:08:56;4.10;99.90
41262;DHT22;29629;52.532;13.352;2023-03-04T02:11:24;4.10;99.90
41262;DHT22;29629;52.532;13.352;2023-03-04T02:13:51;4.10;99.90
41262;DHT22;29629;52.532;13.352;2023-03-04T02:16:18;4.20;99.90
41262;DHT22;29629;52.532;13.352;2023-03-04T02:18:44;4.10;99.90
41262;DHT22;29629;52.532;13.352;2023-03-04T02:21:12;4.10;99.90
41262;DHT22;29629;52.532;13.352;2023-03-04T02:23:42;4.20;99.90
41262;DHT22;29629;52.532;13.352;2023-03-04T02:26:12;4.20;99.90
41262;DHT22;29629;52.532;13.352;2023-03-04T02:28:39;4.20;99.90
41262;DHT22;29629;52.532;13.352;2023-03-04T02:31:08;4.30;99.90
41262;DHT22;29629;52.532;13.352;2023-03-04T02:33:35;4.40;99.90
41262;DHT22;29629;52.532;13.352;2023-03-04T02:36:02;4.30;99.90
41262;DHT22;29629;52.532;13.352;2023-03-04T02:38:28;4.30;99.90
41262;DHT22;29629;52.532;13.352;2023-03-04T02:40:55;4.40;99.90
41262;DHT22;29629;52.532;13.352;2023-03-04T02:43:24;4.40;99.90
41262;DHT22;29629;52.532;13.352;2023-03-04T02:45:50;4.40;99.90
41262;DHT22;29629;52.532;13.352;2023-03-04T02:48:19;4.40;99.90
41262;DHT22;29629;52.532;13.352;2023-03-04T02:50:47;4.50;99.90
41262;DHT22;29629;52.532;13.352;2023-03-04T02:53:14;4.40;99.90
41262;DHT22;29629;52.532;13.352;2023-03-04T02:55:41;4.50;99.90
41262;DHT22;29629;52.532;13.352;2023-03-04T02:58:08;4.50;99.90
41262;DHT22;29629;52.532;13.352;2023-03-04T03:00:36;4.50;99.90
41262;DHT22;29629;52.532;13.352;2023-03-04T03:03:03;4.50;99.90
41262;DHT22;29629;52.532;13.352;2023-03-04T03:05:30;4.50;99.90
41262;DHT22;29629;52.532;13.352;2023-03-04T03:07:58;4.50;99.90
41262;DHT22;29629;52.532;13.352;2023-03-04T03:10:24;4.50;99.90
41262;DHT22;29629;52.532;13.352;2023-03-04T03:12:51;4.60;99.90
41262;DHT22;29629;52.532;13.352;2023-03-04T03:15:18;4.60;99.90
41262;DHT22;29629;52.532;13.352;2023-03-04T03:17:47;4.60;99.90
41262;DHT22;29629;52.532;13.352;2023-03-04T03:20:14;4.70;99.90
41262;DHT22;29629;52.532;13.352;2023-03-04T03:22:41;4.70;99.90
41262;DHT22;29629;52.532;13.352;2023-03-04T03:25:08;4.70;99.90
41262;DHT22;29629;52.532;13.352;2023-03-04T03:27:35;4.60;99.90
41262;DHT22;29629;52.532;13.352;2023-03-04T03:30:03;4.60;99.90
41262;DHT22;29629;52.532;13.352;2023-03-04T03:32:30;4.60;99.90
41262;DHT22;29629;52.532;13.352;2023-03-04T03:34:58;4.70;99.90
41262;DHT22;29629;52.532;13.352;2023-03-04T03:37:25;4.50;99.90
41262;DHT22;29629;52.532;13.352;2023-03-04T03:39:52;4.60;99.90
41262;DHT22;29629;52.532;13.352;2023-03-04T03:42:18;4.60;99.90
41262;DHT22;29629;52.532;13.352;2023-03-04T03:44:45;4.60;99.90
41262;DHT22;29629;52.532;13.352;2023-03-04T03:47:12;4.70;99.90
41262;DHT22;29629;52.532;13.352;2023-03-04T03:49:38;4.60;99.90
41262;DHT22;29629;52.532;13.352;2023-03-04T03:52:07;4.60;99.90
41262;DHT22;29629;52.532;13.352;2023-03-04T03:54:34;4.70;99.90
41262;DHT22;29629;52.532;13.352;2023-03-04T03:57:00;4.70;99.90
41262;DHT22;29629;52.532;13.352;2023-03-04T03:59:27;4.70;99.90
41262;DHT22;29629;52.532;13.352;2023-03-04T04:01:54;4.70;99.90
41262;DHT22;29629;52.532;13.352;2023-03-04T04:04:21;4.80;99.90
41262;DHT22;29629;52.532;13.352;2023-03-04T04:06:47;4.70;99.90
41262;DHT22;29629;52.532;13.352;2023-03-04T04:09:15;4.70;99.90
41262;DHT22;29629;52.532;13.352;2023-03-04T04:11:42;4.70;99.90
41262;DHT22;29629;52.532;13.352;2023-03-04T04:14:10;4.70;99.90
41262;DHT22;29629;52.532;13.352;2023-03-04T04:16:37;4.70;99.90
41262;DHT22;29629;52.532;13.352;2023-03-04T04:19:04;4.80;99.90
41262;DHT22;29629;52.532;13.352;2023-03-04T04:21:30;4.80;99.90
41262;DHT22;29629;52.532;13.352;2023-03-04T04:23:57;4.80;99.90
41262;DHT22;29629;52.532;13.352;2023-03-04T04:26:25;4.80;99.90
41262;DHT22;29629;52.532;13.352;2023-03-04T04:28:52;4.80;99.90
41262;DHT22;29629;52.532;13.352;2023-03-04T04:31:19;4.80;99.90
41262;DHT22;29629;52.532;13.352;2023-03-04T04:33:45;4.90;99.90
41262;DHT22;29629;52.532;13.352;2023-03-04T04:36:12;4.90;99.90
41262;DHT22;29629;52.532;13.352;2023-03-04T04:38:39;4.90;99.90
41262;DHT22;29629;52.532;13.352;2023-03-04T04:41:08;4.90;99.90
41262;DHT22;29629;52.532;13.352;2023-03-04T04:43:43;5.00;99.90
41262;DHT22;29629;52.532;13.352;2023-03-04T04:46:10;5.00;99.90
41262;DHT22;29629;52.532;13.352;2023-03-04T04:48:36;5.00;99.90
41262;DHT22;29629;52.532;13.352;2023-03-04T04:51:03;5.00;99.90
41262;DHT22;29629;52.532;13.352;2023-03-04T04:53:30;5.00;99.90
41262;DHT22;29629;52.532;13.352;2023-03-04T04:55:57;5.00;99.90
41262;DHT22;29629;52.532;13.352;2023-03-04T04:58:23;5.10;99.90
41262;DHT22;29629;52.532;13.352;2023-03-04T05:00:54;5.10;99.90
41262;DHT22;29629;52.532;13.352;2023-03-04T05:03:22;5.10;99.90
41262;DHT22;29629;52.532;13.352;2023-03-04T05:05:48;5.10;99.90
41262;DHT22;29629;52.532;13.352;2023-03-04T05:08:15;5.20;99.90
41262;DHT22;29629;52.532;13.352;2023-03-04T05:10:42;5.10;99.90
41262;DHT22;29629;52.532;13.352;2023-03-04T05:13:08;5.10;99.90
41262;DHT22;29629;52.532;13.352;2023-03-04T05:15:36;5.10;99.90
41262;DHT22;29629;52.532;13.352;2023-03-04T05:18:04;5.20;99.90
41262;DHT22;29629;52.532;13.352;2023-03-04T05:20:31;5.20;99.90
41262;DHT22;29629;52.532;13.352;2023-03-04T05:22:57;5.20;99.90
41262;DHT22;29629;52.532;13.352;2023-03-04T05:25:24;5.20;99.90
41262;DHT22;29629;52.532;13.352;2023-03-04T05:27:51;5.20;99.90
41262;DHT22;29629;52.532;13.352;2023-03-04T05:30:18;5.20;99.90
41262;DHT22;29629;52.532;13.352;2023-03-04T05:32:44;5.20;99.90
41262;DHT22;29629;52.532;13.352;2023-03-04T05:35:13;5.20;99.90
41262;DHT22;29629;52.532;13.352;2023-03-04T05:37:39;5.20;99.90
41262;DHT22;29629;52.532;13.352;2023-03-04T05:40:07;5.20;99.90
41262;DHT22;29629;52.532;13.352;2023-03-04T05:42:34;5.10;99.90
41262;DHT22;29629;52.532;13.352;2023-03-04T05:45:00;5.20;99.90
41262;DHT22;29629;52.532;13.352;2023-03-04T05:47:27;5.10;99.90
41262;DHT22;29629;52.532;13.352;2023-03-04T05:49:54;5.20;99.90
41262;DHT22;29629;52.532;13.352;2023-03-04T05:52:23;5.20;99.90
41262;DHT22;29629;52.532;13.352;2023-03-04T05:54:50;5.10;99.90
41262;DHT22;29629;52.532;13.352;2023-03-04T05:57:17;5.10;99.90
41262;DHT22;29629;52.532;13.352;2023-03-04T05:59:43;5.20;99.90
41262;DHT22;29629;52.532;13.352;2023-03-04T06:02:10;5.20;99.90
41262;DHT22;29629;52.532;13.352;2023-03-04T06:04:37;5.20;99.90
41262;DHT22;29629;52.532;13.352;2023-03-04T06:07:03;5.10;99.90
41262;DHT22;29629;52.532;13.352;2023-03-04T06:09:31;5.20;99.90
41262;DHT22;29629;52.532;13.352;2023-03-04T06:11:58;5.40;99.90
41262;DHT22;29629;52.532;13.352;2023-03-04T06:14:25;5.40;99.90
41262;DHT22;29629;52.532;13.352;2023-03-04T06:16:51;5.30;99.90
41262;DHT22;29629;52.532;13.352;2023-03-04T06:19:18;5.20;99.90
41262;DHT22;29629;52.532;13.352;2023-03-04T06:21:45;5.20;99.90
41262;DHT22;29629;52.532;13.352;2023-03-04T06:24:12;5.20;99.90
41262;DHT22;29629;52.532;13.352;2023-03-04T06:26:40;5.20;99.90
41262;DHT22;29629;52.532;13.352;2023-03-04T06:29:06;5.20;99.90
41262;DHT22;29629;52.532;13.352;2023-03-04T06:31:33;5.20;99.90
41262;DHT22;29629;52.532;13.352;2023-03-04T06:34:00;5.20;99.90
41262;DHT22;29629;52.532;13.352;2023-03-04T06:36:26;5.10;99.90
41262;DHT22;29629;52.532;13.352;2023-03-04T06:38:53;5.20;99.90
41262;DHT22;29629;52.532;13.352;2023-03-04T06:41:20;5.10;99.90
41262;DHT22;29629;52.532;13.352;2023-03-04T06:43:48;5.10;99.90
41262;DHT22;29629;52.532;13.352;2023-03-04T06:46:15;5.10;99.90
41262;DHT22;29629;52.532;13.352;2023-03-04T06:48:41;5.10;99.90
41262;DHT22;29629;52.532;13.352;2023-03-04T06:51:08;5.10;99.90
41262;DHT22;29629;52.532;13.352;2023-03-04T06:53:35;5.10;99.90
41262;DHT22;29629;52.532;13.352;2023-03-04T06:56:02;5.10;99.90
41262;DHT22;29629;52.532;13.352;2023-03-04T06:58:29;5.10;99.90
41262;DHT22;29629;52.532;13.352;2023-03-04T07:01:07;5.20;99.90
41262;DHT22;29629;52.532;13.352;2023-03-04T07:03:34;5.10;99.90
41262;DHT22;29629;52.532;13.352;2023-03-04T07:06:00;5.20;99.90
41262;DHT22;29629;52.532;13.352;2023-03-04T07:08:27;5.20;99.90
41262;DHT22;29629;52.532;13.352;2023-03-04T07:10:54;5.30;99.90
41262;DHT22;29629;52.532;13.352;2023-03-04T07:13:21;5.20;99.90
41262;DHT22;29629;52.532;13.352;2023-03-04T07:15:47;5.20;99.90
41262;DHT22;29629;52.532;13.352;2023-03-04T07:18:15;5.20;99.90
41262;DHT22;29629;52.532;13.352;2023-03-04T07:20:42;5.30;99.90
41262;DHT22;29629;52.532;13.352;2023-03-04T07:23:09;5.30;99.90
41262;DHT22;29629;52.532;13.352;2023-03-04T07:25:36;5.30;99.90
41262;DHT22;29629;52.532;13.352;2023-03-04T07:28:03;5.40;99.90
41262;DHT22;29629;52.532;13.352;2023-03-04T07:30:30;5.40;99.90
41262;DHT22;29629;52.532;13.352;2023-03-04T07:32:56;5.50;99.90
41262;DHT22;29629;52.532;13.352;2023-03-04T07:35:25;5.60;99.90
41262;DHT22;29629;52.532;13.352;2023-03-04T07:37:51;5.60;99.90
41262;DHT22;29629;52.532;13.352;2023-03-04T07:40:18;5.60;99.90
41262;DHT22;29629;52.532;13.352;2023-03-04T07:42:48;5.60;99.90
41262;DHT22;29629;52.532;13.352;2023-03-04T07:45:14;5.60;99.90
41262;DHT22;29629;52.532;13.352;2023-03-04T07:47:41;5.50;99.90
41262;DHT22;29629;52.532;13.352;2023-03-04T07:50:09;5.50;99.90
41262;DHT22;29629;52.532;13.352;2023-03-04T07:52:38;5.50;99.90
41262;DHT22;29629;52.532;13.352;2023-03-04T07:55:05;5.50;99.90
41262;DHT22;29629;52.532;13.352;2023-03-04T07:57:32;5.60;99.90
41262;DHT22;29629;52.532;13.352;2023-03-04T07:59:59;5.70;99.90
41262;DHT22;29629;52.532;13.352;2023-03-04T08:02:25;5.70;99.90
41262;DHT22;29629;52.532;13.352;2023-03-04T08:04:52;5.80;99.90
41262;DHT22;29629;52.532;13.352;2023-03-04T08:07:19;5.80;99.90
41262;DHT22;29629;52.532;13.352;2023-03-04T08:09:47;5.80;99.90
41262;DHT22;29629;52.532;13.352;2023-03-04T08:12:14;5.80;99.90
41262;DHT22;29629;52.532;13.352;2023-03-04T08:14:40;5.80;99.90
41262;DHT22;29629;52.532;13.352;2023-03-04T08:17:07;5.70;99.90
41262;DHT22;29629;52.532;13.352;2023-03-04T08:19:34;5.70;99.90
41262;DHT22;29629;52.532;13.352;2023-03-04T08:22:01;5.80;99.90
41262;DHT22;29629;52.532;13.352;2023-03-04T08:24:28;5.80;99.90
41262;DHT22;29629;52.532;13.352;2023-03-04T08:26:56;5.70;99.90
41262;DHT22;29629;52.532;13.352;2023-03-04T08:29:23;5.80;99.90
41262;DHT22;29629;52.532;13.352;2023-03-04T08:31:51;5.80;99.90
41262;DHT22;29629;52.532;13.352;2023-03-04T08:34:18;5.90;99.90
41262;DHT22;29629;52.532;13.352;2023-03-04T08:36:45;5.90;99.90
41262;DHT22;29629;52.532;13.352;2023-03-04T08:39:13;5.90;99.90
41262;DHT22;29629;52.532;13.352;2023-03-04T08:41:40;6.00;99.90
41262;DHT22;29629;52.532;13.352;2023-03-04T08:44:08;6.20;99.90
41262;DHT22;29629;52.532;13.352;2023-03-04T08:46:35;6.20;99.90
41262;DHT22;29629;52.532;13.352;2023-03-04T08:49:02;6.20;99.90
41262;DHT22;29629;52.532;13.352;2023-03-04T08:51:29;6.20;99.90
41262;DHT22;29629;52.532;13.352;2023-03-04T08:53:56;6.30;99.90
41262;DHT22;29629;52.532;13.352;2023-03-04T08:56:23;6.40;99.90
41262;DHT22;29629;52.532;13.352;2023-03-04T08:58:50;6.50;99.90
41262;DHT22;29629;52.532;13.352;2023-03-04T09:01:18;6.40;99.90
41262;DHT22;29629;52.532;13.352;2023-03-04T09:03:44;6.50;99.90
41262;DHT22;29629;52.532;13.352;2023-03-04T09:06:12;6.40;99.90
41262;DHT22;29629;52.532;13.352;2023-03-04T09:08:39;6.60;99.90
41262;DHT22;29629;52.532;13.352;2023-03-04T09:11:06;6.60;99.90
41262;DHT22;29629;52.532;13.352;2023-03-04T09:13:33;6.60;99.90
41262;DHT22;29629;52.532;13.352;2023-03-04T09:16:00;6.70;99.90
41262;DHT22;29629;52.532;13.352;2023-03-04T09:18:28;6.90;99.90
41262;DHT22;29629;52.532;13.352;2023-03-04T09:20:55;6.80;99.90
41262;DHT22;29629;52.532;13.352;2023-03-04T09:23:21;6.80;99.90
41262;DHT22;29629;52.532;13.352;2023-03-04T09:25:48;6.70;99.90
41262;DHT22;29629;52.532;13.352;2023-03-04T09:28:15;6.70;99.90
41262;DHT22;29629;52.532;13.352;2023-03-04T09:30:42;6.80;99.90
41262;DHT22;29629;52.532;13.352;2023-03-04T09:33:09;6.80;99.90
41262;DHT22;29629;52.532;13.352;2023-03-04T09:35:37;6.90;99.90
41262;DHT22;29629;52.532;13.352;2023-03-04T09:38:04;6.90;99.90
41262;DHT22;29629;52.532;13.352;2023-03-04T09:40:31;6.90;99.90
41262;DHT22;29629;52.532;13.352;2023-03-04T09:43:01;7.00;99.90
41262;DHT22;29629;52.532;13.352;2023-03-04T09:45:32;7.20;99.90
41262;DHT22;29629;52.532;13.352;2023-03-04T09:48:00;7.20;99.90
41262;DHT22;29629;52.532;13.352;2023-03-04T09:50:27;7.10;99.90
41262;DHT22;29629;52.532;13.352;2023-03-04T09:53:06;7.20;99.90
41262;DHT22;29629;52.532;13.352;2023-03-04T09:55:38;7.20;99.90
41262;DHT22;29629;52.532;13.352;2023-03-04T09:58:08;7.10;99.90
41262;DHT22;29629;52.532;13.352;2023-03-04T10:00:41;7.20;99.90
41262;DHT22;29629;52.532;13.352;2023-03-04T10:03:14;7.40;99.90
41262;DHT22;29629;52.532;13.352;2023-03-04T10:05:43;7.30;99.90
41262;DHT22;29629;52.532;13.352;2023-03-04T10:08:20;7.10;99.90
41262;DHT22;29629;52.532;13.352;2023-03-04T10:10:50;7.20;99.90
41262;DHT22;29629;52.532;13.352;2023-03-04T10:13:18;7.40;99.90
41262;DHT22;29629;52.532;13.352;2023-03-04T10:15:47;7.40;99.90
41262;DHT22;29629;52.532;13.352;2023-03-04T10:18:15;7.50;99.90
41262;DHT22;29629;52.532;13.352;2023-03-04T10:20:49;7.40;99.90
41262;DHT22;29629;52.532;13.352;2023-03-04T10:23:20;7.60;99.90
41262;DHT22;29629;52.532;13.352;2023-03-04T10:25:47;7.50;99.90
41262;DHT22;29629;52.532;13.352;2023-03-04T10:28:18;7.60;99.90
41262;DHT22;29629;52.532;13.352;2023-03-04T10:30:47;7.50;99.90
41262;DHT22;29629;52.532;13.352;2023-03-04T10:33:15;7.40;99.90
41262;DHT22;29629;52.532;13.352;2023-03-04T10:35:44;7.50;99.90
41262;DHT22;29629;52.532;13.352;2023-03-04T10:38:11;7.60;99.90
41262;DHT22;29629;52.532;13.352;2023-03-04T10:40:40;7.90;99.90
41262;DHT22;29629;52.532;13.352;2023-03-04T10:43:12;8.00;99.90
41262;DHT22;29629;52.532;13.352;2023-03-04T10:45:39;7.90;99.90
41262;DHT22;29629;52.532;13.352;2023-03-04T10:48:05;8.00;99.90
41262;DHT22;29629;52.532;13.352;2023-03-04T10:50:32;7.70;99.90
41262;DHT22;29629;52.532;13.352;2023-03-04T10:52:59;7.60;99.90
41262;DHT22;29629;52.532;13.352;2023-03-04T10:55:27;7.70;99.90
41262;DHT22;29629;52.532;13.352;2023-03-04T10:57:55;7.50;99.90
41262;DHT22;29629;52.532;13.352;2023-03-04T11:00:27;7.60;99.90
41262;DHT22;29629;52.532;13.352;2023-03-04T11:05:41;7.60;99.90
41262;DHT22;29629;52.532;13.352;2023-03-04T11:08:14;7.50;99.90
41262;DHT22;29629;52.532;13.352;2023-03-04T11:10:42;7.60;99.90
41262;DHT22;29629;52.532;13.352;2023-03-04T11:13:14;7.60;99.90
41262;DHT22;29629;52.532;13.352;2023-03-04T11:15:48;7.70;99.90
41262;DHT22;29629;52.532;13.352;2023-03-04T11:18:15;7.70;99.90
41262;DHT22;29629;52.532;13.352;2023-03-04T11:20:43;7.90;99.90
41262;DHT22;29629;52.532;13.352;2023-03-04T11:23:11;8.00;99.90
41262;DHT22;29629;52.532;13.352;2023-03-04T11:25:40;8.30;99.90
41262;DHT22;29629;52.532;13.352;2023-03-04T11:28:10;8.10;99.90
41262;DHT22;29629;52.532;13.352;2023-03-04T11:30:40;8.20;99.90
41262;DHT22;29629;52.532;13.352;2023-03-04T11:33:15;8.40;99.90
41262;DHT22;29629;52.532;13.352;2023-03-04T11:35:48;8.30;99.90
41262;DHT22;29629;52.532;13.352;2023-03-04T11:38:17;8.10;99.90
41262;DHT22;29629;52.532;13.352;2023-03-04T11:40:45;8.10;99.90
41262;DHT22;29629;52.532;13.352;2023-03-04T11:43:13;8.10;99.90
41262;DHT22;29629;52.532;13.352;2023-03-04T11:45:52;8.00;99.90
41262;DHT22;29629;52.532;13.352;2023-03-04T11:48:26;7.60;99.90
41262;DHT22;29629;52.532;13.352;2023-03-04T11:50:58;7.70;99.90
41262;DHT22;29629;52.532;13.352;2023-03-04T11:53:38;7.60;99.90
41262;DHT22;29629;52.532;13.352;2023-03-04T12:01:32;7.40;99.90
41262;DHT22;29629;52.532;13.352;2023-03-04T12:04:06;7.30;99.90
41262;DHT22;29629;52.532;13.352;2023-03-04T12:06:41;7.30;99.90
41262;DHT22;29629;52.532;13.352;2023-03-04T12:09:13;7.30;99.90
41262;DHT22;29629;52.532;13.352;2023-03-04T12:11:46;7.30;99.90
41262;DHT22;29629;52.532;13.352;2023-03-04T12:14:18;7.40;99.90
41262;DHT22;29629;52.532;13.352;2023-03-04T12:17:01;7.50;99.90
41262;DHT22;29629;52.532;13.352;2023-03-04T12:19:34;7.40;99.90
41262;DHT22;29629;52.532;13.352;2023-03-04T12:22:07;7.50;99.90
41262;DHT22;29629;52.532;13.352;2023-03-04T12:24:43;7.70;99.90
41262;DHT22;29629;52.532;13.352;2023-03-04T12:27:15;7.70;99.90
41262;DHT22;29629;52.532;13.352;2023-03-04T12:29:46;7.70;99.90
41262;DHT22;29629;52.532;13.352;2023-03-04T12:32:20;7.70;99.90
41262;DHT22;29629;52.532;13.352;2023-03-04T12:34:56;7.60;99.90
41262;DHT22;29629;52.532;13.352;2023-03-04T12:37:28;7.60;99.90
41262;DHT22;29629;52.532;13.352;2023-03-04T12:40:05;7.70;99.90
41262;DHT22;29629;52.532;13.352;2023-03-04T12:42:39;7.60;99.90
41262;DHT22;29629;52.532;13.352;2023-03-04T12:45:14;7.60;99.90
41262;DHT22;29629;52.532;13.352;2023-03-04T12:47:46;7.60;99.90
41262;DHT22;29629;52.532;13.352;2023-03-04T12:50:24;7.60;99.90
41262;DHT22;29629;52.532;13.352;2023-03-04T12:52:55;7.70;99.90
41262;DHT22;29629;52.532;13.352;2023-03-04T12:55:25;7.60;99.90
41262;DHT22;29629;52.532;13.352;2023-03-04T12:57:55;7.50;99.90
41262;DHT22;29629;52.532;13.352;2023-03-04T13:00:24;7.60;99.90
41262;DHT22;29629;52.532;13.352;2023-03-04T13:03:01;7.50;99.90
41262;DHT22;29629;52.532;13.352;2023-03-04T13:05:36;7.60;99.90
41262;DHT22;29629;52.532;13.352;2023-03-04T13:08:10;7.60;99.90
41262;DHT22;29629;52.532;13.352;2023-03-04T13:10:39;7.60;99.90
41262;DHT22;29629;52.532;13.352;2023-03-04T13:13:31;7.50;99.90
41262;DHT22;29629;52.532;13.352;2023-03-04T13:16:01;7.60;99.90
41262;DHT22;29629;52.532;13.352;2023-03-04T13:18:29;7.60;99.90
41262;DHT22;29629;52.532;13.352;2023-03-04T13:21:07;7.70;99.90
41262;DHT22;29629;52.532;13.352;2023-03-04T13:23:41;7.70;99.90
41262;DHT22;29629;52.532;13.352;2023-03-04T13:26:27;7.70;99.90
41262;DHT22;29629;52.532;13.352;2023-03-04T13:29:08;7.60;99.90
41262;DHT22;29629;52.532;13.352;2023-03-04T13:37:08;7.50;99.90
41262;DHT22;29629;52.532;13.352;2023-03-04T13:40:03;7.60;99.90
41262;DHT22;29629;52.532;13.352;2023-03-04T13:42:48;7.50;99.90
41262;DHT22;29629;52.532;13.352;2023-03-04T13:45:32;7.40;99.90
41262;DHT22;29629;52.532;13.352;2023-03-04T13:47:59;7.30;99.90
41262;DHT22;29629;52.532;13.352;2023-03-04T13:50:30;7.40;99.90
41262;DHT22;29629;52.532;13.352;2023-03-04T13:53:00;7.40;99.90
41262;DHT22;29629;52.532;13.352;2023-03-04T13:55:58;7.60;99.90
41262;DHT22;29629;52.532;13.352;2023-03-04T13:58:27;7.50;99.90
41262;DHT22;29629;52.532;13.352;2023-03-04T14:00:54;7.50;99.90
41262;DHT22;29629;52.532;13.352;2023-03-04T14:03:22;7.50;99.90
41262;DHT22;29629;52.532;13.352;2023-03-04T14:06:13;7.40;99.90
41262;DHT22;29629;52.532;13.352;2023-03-04T14:08:42;7.30;99.90
41262;DHT22;29629;52.532;13.352;2023-03-04T14:11:13;7.30;99.90
41262;DHT22;29629;52.532;13.352;2023-03-04T14:13:40;7.30;99.90
41262;DHT22;29629;52.532;13.352;2023-03-04T14:16:07;7.30;99.90
41262;DHT22;29629;52.532;13.352;2023-03-04T14:18:34;7.20;99.90
41262;DHT22;29629;52.532;13.352;2023-03-04T14:21:01;7.20;99.90
41262;DHT22;29629;52.532;13.352;2023-03-04T14:23:28;7.10;99.90
41262;DHT22;29629;52.532;13.352;2023-03-04T14:26:08;7.10;99.90
41262;DHT22;29629;52.532;13.352;2023-03-04T14:28:41;7.10;99.90
41262;DHT22;29629;52.532;13.352;2023-03-04T14:31:10;7.10;99.90
41262;DHT22;29629;52.532;13.352;2023-03-04T14:33:42;7.10;99.90
41262;DHT22;29629;52.532;13.352;2023-03-04T14:36:12;7.00;99.90
41262;DHT22;29629;52.532;13.352;2023-03-04T14:38:40;7.10;99.90
41262;DHT22;29629;52.532;13.352;2023-03-04T14:41:10;7.00;99.90
41262;DHT22;29629;52.532;13.352;2023-03-04T14:43:41;6.90;99.90
41262;DHT22;29629;52.532;13.352;2023-03-04T14:46:12;6.90;99.90
41262;DHT22;29629;52.532;13.352;2023-03-04T14:48:42;6.90;99.90
41262;DHT22;29629;52.532;13.352;2023-03-04T14:53:53;6.80;99.90
41262;DHT22;29629;52.532;13.352;2023-03-04T14:56:26;6.80;99.90
41262;DHT22;29629;52.532;13.352;2023-03-04T14:58:55;6.80;99.90
41262;DHT22;29629;52.532;13.352;2023-03-04T15:01:22;6.80;99.90
41262;DHT22;29629;52.532;13.352;2023-03-04T15:03:55;6.80;99.90
41262;DHT22;29629;52.532;13.352;2023-03-04T15:06:23;6.90;99.90
41262;DHT22;29629;52.532;13.352;2023-03-04T15:08:54;6.80;99.90
41262;DHT22;29629;52.532;13.352;2023-03-04T15:11:21;6.80;99.90
41262;DHT22;29629;52.532;13.352;2023-03-04T15:13:51;6.80;99.90
41262;DHT22;29629;52.532;13.352;2023-03-04T15:16:19;6.80;99.90
41262;DHT22;29629;52.532;13.352;2023-03-04T15:18:54;6.80;99.90
41262;DHT22;29629;52.532;13.352;2023-03-04T15:21:29;6.60;99.90
41262;DHT22;29629;52.532;13.352;2023-03-04T15:23:56;6.60;99.90
41262;DHT22;29629;52.532;13.352;2023-03-04T15:26:22;6.60;99.90
41262;DHT22;29629;52.532;13.352;2023-03-04T15:28:51;6.60;99.90
41262;DHT22;29629;52.532;13.352;2023-03-04T15:31:19;6.60;99.90
41262;DHT22;29629;52.532;13.352;2023-03-04T15:33:46;6.80;99.90
41262;DHT22;29629;52.532;13.352;2023-03-04T15:36:13;6.70;99.90
41262;DHT22;29629;52.532;13.352;2023-03-04T15:38:41;6.70;99.90
41262;DHT22;29629;52.532;13.352;2023-03-04T15:41:09;6.70;99.90
41262;DHT22;29629;52.532;13.352;2023-03-04T15:43:36;6.70;99.90
41262;DHT22;29629;52.532;13.352;2023-03-04T15:46:04;6.60;99.90
41262;DHT22;29629;52.532;13.352;2023-03-04T15:48:31;6.50;99.90
41262;DHT22;29629;52.532;13.352;2023-03-04T15:50:58;6.40;99.90
41262;DHT22;29629;52.532;13.352;2023-03-04T15:53:27;6.40;99.90
41262;DHT22;29629;52.532;13.352;2023-03-04T15:55:57;6.40;99.90